createdAt,value
2018-12-27T06:45:47.161Z,3
2018-12-27T06:52:47.939Z,7
2018-12-27T06:56:17.868Z,10
2018-12-27T06:57:47.927Z,13
2018-12-27T07:00:18.106Z,17
2018-12-27T07:01:18.178Z,20
2018-12-27T07:02:48.205Z,23
2018-12-27T07:03:48.269Z,27
2018-12-27T07:04:18.357Z,30
2018-12-27T07:04:48.965Z,33
2018-12-27T07:05:48.417Z,37
2018-12-27T07:06:18.475Z,40
2018-12-27T07:06:48.449Z,43
2018-12-27T07:07:48.522Z,47
2018-12-27T07:08:18.600Z,50
2018-12-27T07:08:48.616Z,53
2018-12-27T07:09:18.658Z,57
2018-12-27T07:09:48.656Z,63
2018-12-27T07:10:18.730Z,67
2018-12-27T07:10:48.801Z,73
2018-12-27T07:11:18.780Z,80
2018-12-27T07:11:48.829Z,87
2018-12-27T07:12:18.844Z,93
2018-12-27T07:12:48.850Z,100
2018-12-27T07:13:18.911Z,107
2018-12-27T07:13:48.926Z,117
2018-12-27T07:14:19.004Z,130
2018-12-27T07:14:49.067Z,143
2018-12-27T07:15:19.029Z,153
2018-12-27T07:15:49.072Z,160
2018-12-27T07:16:19.089Z,167
2018-12-27T07:16:49.130Z,170
2018-12-27T07:17:19.155Z,173
2018-12-27T07:17:49.162Z,183
2018-12-27T07:18:19.214Z,193
2018-12-27T07:18:49.235Z,207
2018-12-27T07:19:19.249Z,217
2018-12-27T07:19:49.347Z,230
2018-12-27T07:20:19.340Z,237
2018-12-27T07:20:49.342Z,240
2018-12-27T07:21:49.446Z,247
2018-12-27T07:22:19.465Z,260
2018-12-27T07:22:49.537Z,273
2018-12-27T07:23:19.496Z,283
2018-12-27T07:23:49.555Z,287
2018-12-27T07:24:19.582Z,293
2018-12-27T07:24:49.705Z,303
2018-12-27T07:25:19.647Z,327
2018-12-27T07:25:49.629Z,347
2018-12-27T07:26:19.655Z,370
2018-12-27T07:26:49.699Z,390
2018-12-27T07:27:19.715Z,400
2018-12-27T07:27:49.740Z,407
2018-12-27T07:28:19.795Z,413
2018-12-27T07:28:49.815Z,417
2018-12-27T07:29:49.945Z,423
2018-12-27T07:30:19.955Z,447
2018-12-27T07:30:49.929Z,473
2018-12-27T07:31:19.962Z,503
2018-12-27T07:31:49.994Z,527
2018-12-27T07:32:50.066Z,530
2018-12-27T07:33:20.158Z,550
2018-12-27T07:33:50.159Z,567
2018-12-27T07:34:20.191Z,583
2018-12-27T07:34:56.368Z,617
2018-12-27T07:35:20.291Z,647
2018-12-27T07:35:50.234Z,673
2018-12-27T07:36:20.332Z,687
2018-12-27T07:37:20.352Z,697
2018-12-27T07:37:50.361Z,717
2018-12-27T07:38:20.388Z,737
2018-12-27T07:38:50.463Z,743
2018-12-27T07:39:50.581Z,767
2018-12-27T07:40:20.554Z,800
2018-12-27T07:40:50.583Z,823
2018-12-27T07:41:20.576Z,840
2018-12-27T07:41:50.649Z,857
2018-12-27T07:42:20.647Z,883
2018-12-27T07:42:50.722Z,910
2018-12-27T07:43:20.701Z,923
2018-12-27T07:43:50.750Z,930
2018-12-27T07:44:20.766Z,940
2018-12-27T07:44:50.903Z,970
2018-12-27T07:45:20.874Z,1027
2018-12-27T07:45:50.854Z,1067
2018-12-27T07:46:20.908Z,1090
2018-12-27T07:46:50.952Z,1127
2018-12-27T07:47:20.973Z,1160
2018-12-27T07:47:51.023Z,1170
2018-12-27T07:48:21.056Z,1197
2018-12-27T07:48:51.074Z,1237
2018-12-27T07:49:21.145Z,1263
2018-12-27T07:49:51.162Z,1307
2018-12-27T07:50:21.183Z,1357
2018-12-27T07:50:51.204Z,1380
2018-12-27T07:51:21.189Z,1390
2018-12-27T07:51:51.255Z,1417
2018-12-27T07:52:21.305Z,1450
2018-12-27T07:52:51.276Z,1463
2018-12-27T07:53:21.392Z,1467
2018-12-27T07:53:51.425Z,1497
2018-12-27T07:54:21.422Z,1553
2018-12-27T07:54:51.462Z,1603
2018-12-27T07:55:21.448Z,1637
2018-12-27T07:55:51.507Z,1683
2018-12-27T07:56:21.562Z,1750
2018-12-27T07:56:51.564Z,1830
2018-12-27T07:57:21.612Z,1927
2018-12-27T07:57:51.626Z,1997
2018-12-27T07:58:21.637Z,2047
2018-12-27T07:58:51.694Z,2070
2018-12-27T07:59:21.682Z,2067
2018-12-27T07:59:51.958Z,2077
2018-12-27T08:00:21.782Z,2073
2018-12-27T08:00:51.838Z,2023
2018-12-27T08:01:21.849Z,1987
2018-12-27T08:01:52.298Z,1977
2018-12-27T08:02:21.919Z,1997
2018-12-27T08:02:51.954Z,2027
2018-12-27T08:03:21.983Z,2080
2018-12-27T08:03:51.997Z,2127
2018-12-27T08:04:22.078Z,2170
2018-12-27T08:04:52.105Z,2237
2018-12-27T08:05:22.096Z,2300
2018-12-27T08:05:52.117Z,2327
2018-12-27T08:06:22.160Z,2310
2018-12-27T08:06:52.141Z,2313
2018-12-27T08:07:22.205Z,2310
2018-12-27T08:07:52.233Z,2290
2018-12-27T08:08:22.295Z,2260
2018-12-27T08:08:52.314Z,2247
2018-12-27T08:09:22.292Z,2243
2018-12-27T08:09:52.452Z,2260
2018-12-27T08:10:22.370Z,2317
2018-12-27T08:10:52.392Z,2383
2018-12-27T08:11:22.475Z,2440
2018-12-27T08:11:52.477Z,2523
2018-12-27T08:12:22.486Z,2627
2018-12-27T08:12:52.529Z,2730
2018-12-27T08:13:22.561Z,2820
2018-12-27T08:13:52.612Z,2920
2018-12-27T08:14:22.647Z,3023
2018-12-27T08:14:52.893Z,3103
2018-12-27T08:15:22.692Z,3137
2018-12-27T08:15:52.695Z,3177
2018-12-27T08:16:22.735Z,3170
2018-12-27T08:16:52.782Z,3083
2018-12-27T08:17:22.788Z,3007
2018-12-27T08:17:52.897Z,2987
2018-12-27T08:18:22.850Z,3047
2018-12-27T08:18:52.887Z,3113
2018-12-27T08:19:22.945Z,3170
2018-12-27T08:19:52.969Z,3177
2018-12-27T08:20:22.977Z,3157
2018-12-27T08:20:53.029Z,3130
2018-12-27T08:21:23.042Z,3087
2018-12-27T08:21:53.091Z,3013
2018-12-27T08:22:23.115Z,2930
2018-12-27T08:22:53.170Z,2910
2018-12-27T08:23:23.160Z,2940
2018-12-27T08:23:53.237Z,2983
2018-12-27T08:24:23.306Z,3047
2018-12-27T08:24:53.340Z,3053
2018-12-27T08:25:23.360Z,3050
2018-12-27T08:25:53.406Z,3153
2018-12-27T08:26:23.340Z,3293
2018-12-27T08:26:53.458Z,3543
2018-12-27T08:27:23.418Z,3817
2018-12-27T08:27:53.485Z,3953
2018-12-27T08:28:23.518Z,3960
2018-12-27T08:28:53.574Z,4063
2018-12-27T08:29:23.550Z,4270
2018-12-27T08:29:53.642Z,4280
2018-12-27T08:30:23.586Z,4267
2018-12-27T08:30:53.697Z,4437
2018-12-27T08:31:23.649Z,4653
2018-12-27T08:31:53.743Z,4790
2018-12-27T08:32:23.769Z,4820
2018-12-27T08:32:53.834Z,4890
2018-12-27T08:33:23.820Z,5067
2018-12-27T08:33:53.804Z,5243
2018-12-27T08:34:23.828Z,5450
2018-12-27T08:34:59.449Z,5600
2018-12-27T08:35:23.993Z,5470
2018-12-27T08:35:53.986Z,5207
2018-12-27T08:36:24.006Z,5227
2018-12-27T08:36:53.988Z,5527
2018-12-27T08:37:24.069Z,5893
2018-12-27T08:37:54.110Z,5980
2018-12-27T08:38:24.157Z,5807
2018-12-27T08:38:54.107Z,5567
2018-12-27T08:39:24.214Z,5313
2018-12-27T08:39:54.264Z,5057
2018-12-27T08:40:24.263Z,4973
2018-12-27T08:40:54.300Z,5183
2018-12-27T08:41:24.331Z,5527
2018-12-27T08:41:54.353Z,5760
2018-12-27T08:42:24.337Z,5613
2018-12-27T08:42:54.422Z,5343
2018-12-27T08:43:24.441Z,5177
2018-12-27T08:43:54.452Z,5193
2018-12-27T08:44:24.448Z,5333
2018-12-27T08:44:54.531Z,5353
2018-12-27T08:45:24.586Z,5437
2018-12-27T08:45:54.623Z,5660
2018-12-27T08:46:24.719Z,5810
2018-12-27T08:46:54.614Z,5933
2018-12-27T08:47:25.676Z,5837
2018-12-27T08:47:54.738Z,5777
2018-12-27T08:48:24.695Z,6063
2018-12-27T08:48:54.768Z,6577
2018-12-27T08:49:24.798Z,6823
2018-12-27T08:49:54.865Z,6913
2018-12-27T08:50:24.845Z,7200
2018-12-27T08:50:54.886Z,7600
2018-12-27T08:51:24.907Z,7977
2018-12-27T08:51:54.970Z,7737
2018-12-27T08:52:25.012Z,6963
2018-12-27T08:52:55.032Z,6287
2018-12-27T08:53:25.053Z,6133
2018-12-27T08:53:55.089Z,6277
2018-12-27T08:54:25.135Z,6443
2018-12-27T08:54:55.137Z,6500
2018-12-27T08:55:25.236Z,6383
2018-12-27T08:55:55.211Z,6253
2018-12-27T08:56:25.237Z,6090
2018-12-27T08:56:55.282Z,5960
2018-12-27T08:57:25.298Z,5867
2018-12-27T08:57:55.321Z,5760
2018-12-27T08:58:25.349Z,5707
2018-12-27T08:58:55.393Z,5757
2018-12-27T08:59:25.417Z,5993
2018-12-27T08:59:55.477Z,6367
2018-12-27T09:00:25.539Z,6897
2018-12-27T09:00:55.727Z,7727
2018-12-27T09:01:25.519Z,8310
2018-12-27T09:01:55.557Z,8733
2018-12-27T09:02:25.570Z,9190
2018-12-27T09:02:55.641Z,9660
2018-12-27T09:03:25.670Z,10157
2018-12-27T09:03:55.671Z,9943
2018-12-27T09:04:25.708Z,9110
2018-12-27T09:04:55.730Z,8200
2018-12-27T09:05:25.775Z,7720
2018-12-27T09:05:55.763Z,7847
2018-12-27T09:06:25.799Z,8447
2018-12-27T09:06:55.859Z,9547
2018-12-27T09:07:25.863Z,10687
2018-12-27T09:07:55.894Z,11563
2018-12-27T09:08:25.947Z,12690
2018-12-27T09:08:55.964Z,11713
2018-12-27T09:09:25.982Z,9987
2018-12-27T09:09:56.011Z,9870
2018-12-27T09:10:26.084Z,9173
2018-12-27T09:10:56.081Z,9183
2018-12-27T09:11:26.155Z,12313
2018-12-27T09:11:56.135Z,11540
2018-12-27T09:12:26.229Z,11480
2018-12-27T09:12:56.234Z,11067
2018-12-27T09:13:26.251Z,10400
2018-12-27T09:13:56.308Z,9650
2018-12-27T09:14:26.352Z,9507
2018-12-27T09:14:56.430Z,9827
2018-12-27T09:15:26.408Z,9930
2018-12-27T09:15:56.495Z,9703
2018-12-27T09:16:26.479Z,9757
2018-12-27T09:16:56.458Z,10003
2018-12-27T09:17:26.550Z,10223
2018-12-27T09:17:56.593Z,9413
2018-12-27T09:18:26.603Z,9457
2018-12-27T09:18:56.599Z,9800
2018-12-27T09:19:26.659Z,10003
2018-12-27T09:19:56.670Z,10280
2018-12-27T09:20:26.724Z,10593
2018-12-27T09:20:56.739Z,10510
2018-12-27T09:21:26.773Z,10027
2018-12-27T09:21:56.791Z,9553
2018-12-27T09:22:26.848Z,9637
2018-12-27T09:22:56.861Z,9883
2018-12-27T09:23:26.904Z,9873
2018-12-27T09:23:56.927Z,9697
2018-12-27T09:24:26.909Z,9820
2018-12-27T09:24:56.964Z,10160
2018-12-27T09:25:27.034Z,10767
2018-12-27T09:25:57.089Z,11567
2018-12-27T09:26:27.033Z,12383
2018-12-27T09:26:57.093Z,13013
2018-12-27T09:27:27.144Z,13143
2018-12-27T09:27:57.117Z,12767
2018-12-27T09:28:27.201Z,12923
2018-12-27T09:28:57.224Z,12920
2018-12-27T09:29:27.277Z,12677
2018-12-27T09:29:57.290Z,12003
2018-12-27T09:30:27.274Z,11853
2018-12-27T09:30:57.347Z,11303
2018-12-27T09:31:27.402Z,11327
2018-12-27T09:31:57.399Z,11183
2018-12-27T09:32:27.462Z,11080
2018-12-27T09:32:57.450Z,10977
2018-12-27T09:33:27.507Z,11047
2018-12-27T09:33:57.521Z,11403
2018-12-27T09:34:27.573Z,12117
2018-12-27T09:34:57.639Z,13387
2018-12-27T09:35:27.632Z,13957
2018-12-27T09:35:57.671Z,14350
2018-12-27T09:36:27.716Z,13623
2018-12-27T09:36:57.700Z,12773
2018-12-27T09:37:27.733Z,12680
2018-12-27T09:37:57.757Z,13010
2018-12-27T09:38:27.812Z,13067
2018-12-27T09:38:57.857Z,16113
2018-12-27T09:39:27.881Z,13810
2018-12-27T09:39:57.881Z,13223
2018-12-27T09:40:27.939Z,13943
2018-12-27T09:40:58.000Z,13680
2018-12-27T09:41:28.013Z,13720
2018-12-27T09:41:58.064Z,13823
2018-12-27T09:42:28.106Z,14460
2018-12-27T09:42:58.064Z,13190
2018-12-27T09:43:28.074Z,11940
2018-12-27T09:43:58.213Z,12807
2018-12-27T09:44:28.190Z,12780
2018-12-27T09:44:58.179Z,13747
2018-12-27T09:45:28.246Z,14400
2018-12-27T09:45:58.394Z,14223
2018-12-27T09:46:28.323Z,12973
2018-12-27T09:46:58.359Z,11540
2018-12-27T09:47:28.329Z,10743
2018-12-27T09:47:58.427Z,10833
2018-12-27T09:48:28.428Z,10980
2018-12-27T09:48:58.439Z,11427
2018-12-27T09:49:28.462Z,11997
2018-12-27T09:49:58.495Z,12047
2018-12-27T09:50:28.596Z,11540
2018-12-27T09:50:58.584Z,11127
2018-12-27T09:51:28.613Z,11137
2018-12-27T09:52:01.967Z,11290
2018-12-27T09:52:28.689Z,11420
2018-12-27T09:52:58.679Z,11170
2018-12-27T09:53:58.714Z,11937
2018-12-27T09:54:28.770Z,12410
2018-12-27T09:54:58.782Z,12230
2018-12-27T09:55:28.841Z,11773
2018-12-27T09:55:58.842Z,11190
2018-12-27T09:56:28.873Z,10937
2018-12-27T09:56:58.927Z,11413
2018-12-27T09:57:28.942Z,12107
2018-12-27T09:57:58.988Z,12473
2018-12-27T09:58:29.000Z,12240
2018-12-27T09:58:59.078Z,11630
2018-12-27T09:59:29.064Z,11187
2018-12-27T09:59:59.134Z,11307
2018-12-27T10:00:29.178Z,12010
2018-12-27T10:00:59.262Z,13173
2018-12-27T10:01:29.254Z,13940
2018-12-27T10:01:59.347Z,13413
2018-12-27T10:02:29.295Z,12703
2018-12-27T10:02:59.305Z,12697
2018-12-27T10:03:29.343Z,12880
2018-12-27T10:03:59.409Z,13010
2018-12-27T10:04:29.371Z,13520
2018-12-27T10:04:59.455Z,13863
2018-12-27T10:05:33.670Z,13900
2018-12-27T10:05:59.508Z,13613
2018-12-27T10:06:29.521Z,13213
2018-12-27T10:06:59.570Z,12830
2018-12-27T10:07:29.605Z,12750
2018-12-27T10:07:59.648Z,12803
2018-12-27T10:08:29.663Z,12460
2018-12-27T10:08:59.719Z,11753
2018-12-27T10:09:29.723Z,11403
2018-12-27T10:09:59.705Z,11453
2018-12-27T10:10:29.786Z,12033
2018-12-27T10:10:59.829Z,12663
2018-12-27T10:11:29.845Z,12773
2018-12-27T10:11:59.869Z,12643
2018-12-27T10:12:29.932Z,12477
2018-12-27T10:12:59.931Z,12080
2018-12-27T10:13:29.974Z,12497
2018-12-27T10:13:59.993Z,13553
2018-12-27T10:14:30.027Z,13830
2018-12-27T10:15:00.056Z,13683
2018-12-27T10:15:30.178Z,13463
2018-12-27T10:16:00.125Z,13153
2018-12-27T10:16:30.165Z,13037
2018-12-27T10:17:00.150Z,13130
2018-12-27T10:17:30.225Z,13373
2018-12-27T10:18:00.756Z,13687
2018-12-27T10:18:30.279Z,13797
2018-12-27T10:19:01.125Z,13493
2018-12-27T10:19:30.336Z,13513
2018-12-27T10:20:01.141Z,14133
2018-12-27T10:20:30.400Z,14270
2018-12-27T10:21:00.747Z,13823
2018-12-27T10:21:30.485Z,13510
2018-12-27T10:22:01.560Z,13273
2018-12-27T10:22:30.548Z,13097
2018-12-27T10:23:00.882Z,12587
2018-12-27T10:23:30.612Z,12517
2018-12-27T10:24:00.558Z,12983
2018-12-27T10:24:30.647Z,13240
2018-12-27T10:25:00.992Z,13330
2018-12-27T10:25:30.715Z,13693
2018-12-27T10:26:01.177Z,13760
2018-12-27T10:26:30.775Z,13740
2018-12-27T10:27:00.749Z,13760
2018-12-27T10:27:30.785Z,14240
2018-12-27T10:28:01.002Z,15093
2018-12-27T10:28:30.898Z,16020
2018-12-27T10:29:00.872Z,16430
2018-12-27T10:29:30.960Z,16440
2018-12-27T10:30:01.733Z,16080
2018-12-27T10:30:31.017Z,16227
2018-12-27T10:31:01.888Z,16260
2018-12-27T10:31:31.069Z,16533
2018-12-27T10:32:01.316Z,17007
2018-12-27T10:32:31.135Z,17903
2018-12-27T10:33:01.206Z,18357
2018-12-27T10:33:31.185Z,17933
2018-12-27T10:34:01.228Z,17820
2018-12-27T10:34:31.261Z,17620
2018-12-27T10:35:01.441Z,17373
2018-12-27T10:35:31.357Z,17817
2018-12-27T10:36:01.331Z,18633
2018-12-27T10:36:31.423Z,19273
2018-12-27T10:37:01.362Z,19003
2018-12-27T10:37:31.445Z,18357
2018-12-27T10:38:01.428Z,17783
2018-12-27T10:38:31.494Z,17133
2018-12-27T10:39:01.849Z,17407
2018-12-27T10:39:31.522Z,17777
2018-12-27T10:40:01.600Z,17770
2018-12-27T10:40:31.620Z,17340
2018-12-27T10:41:01.770Z,17683
2018-12-27T10:41:31.669Z,18623
2018-12-27T10:42:01.685Z,19443
2018-12-27T10:42:31.751Z,19777
2018-12-27T10:43:01.792Z,19713
2018-12-27T10:43:31.791Z,19380
2018-12-27T10:44:01.802Z,19323
2018-12-27T10:44:31.842Z,19547
2018-12-27T10:45:01.908Z,19490
2018-12-27T10:45:31.894Z,18487
2018-12-27T10:46:01.922Z,17383
2018-12-27T10:46:31.998Z,16640
2018-12-27T10:47:02.029Z,16380
2018-12-27T10:47:32.017Z,16177
2018-12-27T10:48:02.122Z,15593
2018-12-27T10:48:32.081Z,14090
2018-12-27T10:49:02.102Z,12007
2018-12-27T10:49:32.177Z,10273
2018-12-27T10:50:02.154Z,9513
2018-12-27T10:50:32.208Z,9337
2018-12-27T10:51:02.310Z,9463
2018-12-27T10:51:32.291Z,9580
2018-12-27T10:52:02.313Z,9720
2018-12-27T10:52:32.367Z,9917
2018-12-27T10:53:02.371Z,10163
2018-12-27T10:53:32.375Z,10453
2018-12-27T10:54:02.415Z,10777
2018-12-27T10:54:32.510Z,11093
2018-12-27T10:55:02.486Z,11427
2018-12-27T10:55:32.542Z,11783
2018-12-27T10:56:02.605Z,12150
2018-12-27T10:56:32.579Z,12533
2018-12-27T10:57:02.632Z,12900
2018-12-27T10:57:33.954Z,13247
2018-12-27T10:58:02.721Z,13593
2018-12-27T10:58:32.738Z,13907
2018-12-27T10:59:02.790Z,14207
2018-12-27T10:59:32.804Z,14477
2018-12-27T11:00:02.857Z,14737
2018-12-27T11:00:32.865Z,14983
2018-12-27T11:01:02.899Z,15203
2018-12-27T11:01:32.975Z,15383
2018-12-27T11:02:02.994Z,15513
2018-12-27T11:02:32.987Z,15603
2018-12-27T11:03:03.059Z,15660
2018-12-27T11:03:33.046Z,15680
2018-12-27T11:04:03.111Z,15663
2018-12-27T11:04:33.105Z,15603
2018-12-27T11:05:03.176Z,15537
2018-12-27T11:05:33.138Z,15520
2018-12-27T11:06:03.214Z,15550
2018-12-27T11:06:33.235Z,15627
2018-12-27T11:07:03.271Z,15747
2018-12-27T11:07:33.265Z,15930
2018-12-27T11:08:03.302Z,16120
2018-12-27T11:08:33.306Z,16320
2018-12-27T11:09:03.395Z,16510
2018-12-27T11:09:33.413Z,16727
2018-12-27T11:10:03.479Z,16950
2018-12-27T11:10:33.502Z,17200
2018-12-27T11:11:03.540Z,17413
2018-12-27T11:11:33.548Z,17690
2018-12-27T11:12:03.573Z,17850
2018-12-27T11:12:33.610Z,18043
2018-12-27T11:13:03.629Z,18240
2018-12-27T11:13:33.614Z,18407
2018-12-27T11:14:03.639Z,18497
2018-12-27T11:14:33.747Z,18517
2018-12-27T11:15:03.766Z,18413
2018-12-27T11:15:33.790Z,18153
2018-12-27T11:16:03.816Z,17857
2018-12-27T11:16:33.866Z,17527
2018-12-27T11:17:03.870Z,17127
2018-12-27T11:17:33.935Z,16617
2018-12-27T11:18:03.970Z,16180
2018-12-27T11:18:33.978Z,15823
2018-12-27T11:19:03.994Z,15490
2018-12-27T11:19:34.035Z,15207
2018-12-27T11:20:04.057Z,14943
2018-12-27T11:20:34.078Z,14780
2018-12-27T11:21:04.077Z,14653
2018-12-27T11:21:34.102Z,14577
2018-12-27T11:22:04.191Z,14470
2018-12-27T11:22:34.226Z,14333
2018-12-27T11:23:04.241Z,14173
2018-12-27T11:23:34.223Z,14040
2018-12-27T11:24:04.302Z,13903
2018-12-27T11:24:34.341Z,13783
2018-12-27T11:25:04.340Z,13680
2018-12-27T11:25:34.398Z,13613
2018-12-27T11:26:34.461Z,13610
2018-12-27T11:27:04.466Z,13593
2018-12-27T11:27:34.504Z,13530
2018-12-27T11:28:04.516Z,13663
2018-12-27T11:28:34.560Z,14307
2018-12-27T11:29:04.609Z,15077
2018-12-27T11:29:34.631Z,15580
2018-12-27T11:30:04.626Z,15470
2018-12-27T11:30:34.683Z,15253
2018-12-27T11:31:04.707Z,14987
2018-12-27T11:31:34.841Z,14370
2018-12-27T11:32:04.793Z,13783
2018-12-27T11:32:34.814Z,13097
2018-12-27T11:33:04.830Z,12050
2018-12-27T11:33:34.878Z,11523
2018-12-27T11:34:04.879Z,10987
2018-12-27T11:34:34.908Z,10517
2018-12-27T11:35:04.928Z,10150
2018-12-27T11:35:35.020Z,9910
2018-12-27T11:36:05.076Z,9677
2018-12-27T11:36:35.022Z,9557
2018-12-27T11:37:06.099Z,9450
2018-12-27T11:37:35.103Z,9387
2018-12-27T11:38:05.154Z,9400
2018-12-27T11:38:35.146Z,9493
2018-12-27T11:39:05.198Z,9680
2018-12-27T11:39:35.252Z,10067
2018-12-27T11:40:05.289Z,10457
2018-12-27T11:40:35.308Z,10797
2018-12-27T11:41:05.329Z,10950
2018-12-27T11:41:35.365Z,10737
2018-12-27T11:42:05.446Z,10263
2018-12-27T11:42:35.687Z,9817
2018-12-27T11:43:05.454Z,9580
2018-12-27T11:43:35.529Z,9437
2018-12-27T11:44:05.515Z,9280
2018-12-27T11:44:35.559Z,9237
2018-12-27T11:45:05.596Z,9383
2018-12-27T11:45:35.632Z,9647
2018-12-27T11:46:05.643Z,10160
2018-12-27T11:46:35.702Z,10850
2018-12-27T11:47:05.702Z,10837
2018-12-27T11:47:35.780Z,10247
2018-12-27T11:48:05.727Z,9717
2018-12-27T11:48:35.850Z,9437
2018-12-27T11:49:05.815Z,9363
2018-12-27T11:49:35.883Z,9337
2018-12-27T11:50:05.874Z,9367
2018-12-27T11:50:35.978Z,9390
2018-12-27T11:51:05.946Z,9400
2018-12-27T11:51:35.998Z,9383
2018-12-27T11:52:06.007Z,9387
2018-12-27T11:52:36.069Z,9310
2018-12-27T11:53:06.067Z,9153
2018-12-27T11:53:36.071Z,9047
2018-12-27T11:54:06.134Z,8953
2018-12-27T11:54:36.214Z,8933
2018-12-27T11:55:06.193Z,8943
2018-12-27T11:55:36.244Z,8870
2018-12-27T11:56:06.260Z,8797
2018-12-27T11:56:36.306Z,8710
2018-12-27T11:57:06.309Z,8657
2018-12-27T11:57:36.363Z,8590
2018-12-27T11:58:06.374Z,8553
2018-12-27T11:58:36.389Z,8523
2018-12-27T11:59:06.440Z,8497
2018-12-27T11:59:36.478Z,8463
2018-12-27T12:00:06.505Z,8440
2018-12-27T12:00:36.562Z,8443
2018-12-27T12:01:06.551Z,8377
2018-12-27T12:01:36.623Z,8327
2018-12-27T12:02:06.611Z,8320
2018-12-27T12:02:36.833Z,8343
2018-12-27T12:03:06.681Z,8387
2018-12-27T12:03:36.750Z,8437
2018-12-27T12:04:06.739Z,8477
2018-12-27T12:04:36.798Z,8523
2018-12-27T12:05:06.840Z,8580
2018-12-27T12:05:36.857Z,8637
2018-12-27T12:06:06.937Z,8677
2018-12-27T12:06:36.929Z,8700
2018-12-27T12:07:06.921Z,8730
2018-12-27T12:07:36.990Z,8760
2018-12-27T12:08:06.957Z,8740
2018-12-27T12:08:37.070Z,8663
2018-12-27T12:09:07.172Z,8697
2018-12-27T12:09:37.080Z,8740
2018-12-27T12:10:07.186Z,8763
2018-12-27T12:10:37.174Z,8823
2018-12-27T12:11:07.184Z,8950
2018-12-27T12:11:37.228Z,9027
2018-12-27T12:12:07.317Z,9147
2018-12-27T12:12:37.323Z,9230
2018-12-27T12:13:07.293Z,9307
2018-12-27T12:13:38.680Z,9343
2018-12-27T12:14:37.425Z,9350
2018-12-27T12:15:37.480Z,9347
2018-12-27T12:16:07.542Z,9353
2018-12-27T12:16:37.521Z,9367
2018-12-27T12:17:37.629Z,9353
2018-12-27T12:18:07.596Z,9270
2018-12-27T12:18:37.692Z,9247
2018-12-27T12:19:07.639Z,9233
2018-12-27T12:19:37.706Z,9213
2018-12-27T12:20:07.746Z,9200
2018-12-27T12:20:37.743Z,9217
2018-12-27T12:21:07.782Z,9257
2018-12-27T12:21:37.796Z,9283
2018-12-27T12:22:07.824Z,9290
2018-12-27T12:22:37.856Z,9293
2018-12-27T12:23:07.883Z,9287
2018-12-27T12:23:37.941Z,9297
2018-12-27T12:24:07.947Z,9280
2018-12-27T12:24:37.974Z,9357
2018-12-27T12:25:08.031Z,9377
2018-12-27T12:25:38.069Z,9343
2018-12-27T12:26:08.117Z,9310
2018-12-27T12:26:38.099Z,9300
2018-12-27T12:27:08.204Z,9267
2018-12-27T12:27:38.191Z,9297
2018-12-27T12:28:38.342Z,9313
2018-12-27T12:29:08.313Z,9243
2018-12-27T12:29:38.689Z,9177
2018-12-27T12:30:08.376Z,9100
2018-12-27T12:30:38.368Z,9030
2018-12-27T12:31:08.420Z,8950
2018-12-27T12:31:38.401Z,8960
2018-12-27T12:32:08.483Z,8993
2018-12-27T12:32:38.537Z,9040
2018-12-27T12:33:08.567Z,9007
2018-12-27T12:33:38.626Z,8807
2018-12-27T12:34:08.598Z,8693
2018-12-27T12:34:39.056Z,8630
2018-12-27T12:35:08.665Z,8540
2018-12-27T12:35:38.731Z,8477
2018-12-27T12:36:10.762Z,8440
2018-12-27T12:36:38.765Z,8443
2018-12-27T12:37:13.882Z,8507
2018-12-27T12:37:38.830Z,8587
2018-12-27T12:38:08.893Z,8670
2018-12-27T12:38:38.938Z,8763
2018-12-27T12:39:08.912Z,8887
2018-12-27T12:39:38.954Z,9010
2018-12-27T12:40:08.988Z,9203
2018-12-27T12:40:38.980Z,9457
2018-12-27T12:41:09.037Z,9753
2018-12-27T12:41:39.107Z,10100
2018-12-27T12:42:09.091Z,10517
2018-12-27T12:42:39.139Z,10963
2018-12-27T12:43:09.164Z,11360
2018-12-27T12:43:39.230Z,11780
2018-12-27T12:44:09.221Z,12230
2018-12-27T12:44:39.267Z,12723
2018-12-27T12:45:09.306Z,13227
2018-12-27T12:45:39.395Z,13760
2018-12-27T12:46:09.335Z,14207
2018-12-27T12:46:39.382Z,14607
2018-12-27T12:47:09.387Z,14867
2018-12-27T12:47:39.486Z,15087
2018-12-27T12:48:09.465Z,15293
2018-12-27T12:48:39.572Z,15303
2018-12-27T12:49:09.478Z,15160
2018-12-27T12:49:39.596Z,15073
2018-12-27T12:50:09.587Z,14963
2018-12-27T12:50:39.629Z,14833
2018-12-27T12:51:09.643Z,14757
2018-12-27T12:51:39.682Z,14727
2018-12-27T12:52:09.703Z,14553
2018-12-27T12:52:39.766Z,14363
2018-12-27T12:53:09.764Z,14143
2018-12-27T12:53:39.778Z,13917
2018-12-27T12:54:09.830Z,13750
2018-12-27T12:54:39.875Z,13607
2018-12-27T12:55:09.893Z,13437
2018-12-27T12:55:39.883Z,13293
2018-12-27T12:56:09.946Z,13227
2018-12-27T12:56:40.027Z,13250
2018-12-27T12:57:10.015Z,13440
2018-12-27T12:57:40.060Z,13530
2018-12-27T12:58:10.089Z,13450
2018-12-27T12:58:40.104Z,13413
2018-12-27T12:59:10.211Z,13460
2018-12-27T12:59:40.188Z,13327
2018-12-27T13:00:10.200Z,13137
2018-12-27T13:00:40.258Z,13070
2018-12-27T13:01:10.253Z,12960
2018-12-27T13:01:40.326Z,12933
2018-12-27T13:02:10.356Z,12773
2018-12-27T13:02:40.332Z,12543
2018-12-27T13:03:10.376Z,12307
2018-12-27T13:03:41.261Z,12173
2018-12-27T13:04:10.522Z,12010
2018-12-27T13:04:40.448Z,11927
2018-12-27T13:05:10.486Z,11837
2018-12-27T13:05:40.497Z,11803
2018-12-27T13:06:17.768Z,11840
2018-12-27T13:06:40.595Z,11863
2018-12-27T13:07:10.596Z,11860
2018-12-27T13:07:40.615Z,11800
2018-12-27T13:08:10.675Z,11750
2018-12-27T13:08:40.739Z,11700
2018-12-27T13:09:10.752Z,11637
2018-12-27T13:09:40.749Z,11537
2018-12-27T13:10:10.834Z,11443
2018-12-27T13:10:40.849Z,11377
2018-12-27T13:11:10.840Z,11343
2018-12-27T13:11:40.900Z,11293
2018-12-27T13:12:10.916Z,11247
2018-12-27T13:12:40.985Z,11220
2018-12-27T13:13:40.992Z,11233
2018-12-27T13:14:11.295Z,11253
2018-12-27T13:14:41.132Z,11267
2018-12-27T13:15:11.084Z,11287
2018-12-27T13:15:41.176Z,11307
2018-12-27T13:16:11.170Z,11337
2018-12-27T13:16:41.198Z,11363
2018-12-27T13:17:11.264Z,11400
2018-12-27T13:17:41.316Z,11423
2018-12-27T13:18:11.305Z,11437
2018-12-27T13:18:47.192Z,11450
2018-12-27T13:19:11.427Z,11457
2018-12-27T13:19:41.373Z,11427
2018-12-27T13:20:11.417Z,11357
2018-12-27T13:20:41.488Z,11267
2018-12-27T13:21:11.538Z,11140
2018-12-27T13:21:41.523Z,10990
2018-12-27T13:22:11.580Z,10833
2018-12-27T13:22:41.771Z,10660
2018-12-27T13:23:12.866Z,10480
2018-12-27T13:23:41.704Z,10307
2018-12-27T13:24:11.797Z,10113
2018-12-27T13:24:41.713Z,9897
2018-12-27T13:25:11.784Z,9657
2018-12-27T13:25:41.815Z,9423
2018-12-27T13:26:11.824Z,9197
2018-12-27T13:26:41.804Z,8983
2018-12-27T13:27:11.883Z,8737
2018-12-27T13:27:41.905Z,8500
2018-12-27T13:28:11.942Z,8297
2018-12-27T13:28:41.990Z,8133
2018-12-27T13:29:12.069Z,7987
2018-12-27T13:29:42.012Z,7830
2018-12-27T13:30:12.071Z,7697
2018-12-27T13:30:42.112Z,7630
2018-12-27T13:31:12.152Z,7623
2018-12-27T13:31:42.177Z,7627
2018-12-27T13:32:12.214Z,7630
2018-12-27T13:32:42.190Z,7627
2018-12-27T13:33:12.228Z,7600
2018-12-27T13:33:42.269Z,7547
2018-12-27T13:34:12.397Z,7487
2018-12-27T13:34:42.302Z,7430
2018-12-27T13:35:12.357Z,7370
2018-12-27T13:35:42.360Z,7303
2018-12-27T13:36:12.457Z,7237
2018-12-27T13:36:42.406Z,7160
2018-12-27T13:37:12.497Z,7083
2018-12-27T13:37:42.532Z,7010
2018-12-27T13:38:12.555Z,6933
2018-12-27T13:38:42.585Z,6863
2018-12-27T13:39:12.642Z,6797
2018-12-27T13:39:42.601Z,6720
2018-12-27T13:40:12.682Z,6643
2018-12-27T13:40:42.708Z,6573
2018-12-27T13:41:12.734Z,6510
2018-12-27T13:41:42.795Z,6453
2018-12-27T13:42:12.799Z,6397